Time;durP1;ratioP1;P1;durP2;ratioP2;P2;SDS_P1;SDS_P2;PMS_P1;PMS_P2;Temp;Humidity;BMP_temperature;BMP_pressure;BME280_temperature;BME280_humidity;BME280_pressure;Samples;Min_cycle;Max_cycle;Signal;HPM_P1;HPM_P2
2023/07/25 00:01:25;;;;;;;16.20;3.77;;;;;;;;;;6197328;23;20423;-78
2023/07/25 00:03:53;;;;;;;4.23;2.30;;;;;;;;;;6199734;23;20422;-78
2023/07/25 00:06:23;;;;;;;3.60;2.10;;;;;;;;;;6199186;23;20434;-77
2023/07/25 00:08:51;;;;;;;10.07;2.33;;;;;;;;;;6199029;23;20368;-78
2023/07/25 00:11:18;;;;;;;6.20;4.43;;;;;;;;;;6203160;23;20435;-78
2023/07/25 00:13:47;;;;;;;4.50;2.50;;;;;;;;;;6204316;23;20414;-78
2023/07/25 00:16:15;;;;;;;4.63;1.90;;;;;;;;;;6204319;23;20419;-78
2023/07/25 00:18:45;;;;;;;6.80;2.50;;;;;;;;;;6200531;23;20450;-78
2023/07/25 00:21:20;;;;;;;9.87;3.00;;;;;;;;;;6199027;23;20437;-78
2023/07/25 00:23:50;;;;;;;5.00;2.60;;;;;;;;;;6196921;23;20414;-79
2023/07/25 00:26:21;;;;;;;6.03;2.80;;;;;;;;;;6197489;23;20411;-79
2023/07/25 00:28:49;;;;;;;4.00;2.20;;;;;;;;;;6196125;23;20722;-79
2023/07/25 00:31:17;;;;;;;4.77;2.77;;;;;;;;;;6195792;23;20451;-78
2023/07/25 00:33:46;;;;;;;8.33;2.30;;;;;;;;;;6198988;23;20419;-78
2023/07/25 00:36:14;;;;;;;4.07;2.43;;;;;;;;;;6196724;23;20398;-78
2023/07/25 00:38:42;;;;;;;5.43;2.83;;;;;;;;;;6195220;23;20669;-79
2023/07/25 00:41:11;;;;;;;6.10;2.37;;;;;;;;;;6194736;23;20430;-79
2023/07/25 00:43:38;;;;;;;5.80;2.43;;;;;;;;;;6195146;23;20410;-80
2023/07/25 00:46:06;;;;;;;5.60;2.63;;;;;;;;;;6197486;23;20415;-78
2023/07/25 00:48:34;;;;;;;3.60;1.93;;;;;;;;;;6200634;23;20461;-78
2023/07/25 00:51:01;;;;;;;8.73;2.87;;;;;;;;;;6220064;23;20446;-80
2023/07/25 00:53:29;;;;;;;6.37;2.87;;;;;;;;;;6225412;23;20436;-80
2023/07/25 00:55:57;;;;;;;8.63;3.07;;;;;;;;;;6226590;23;20421;-79
2023/07/25 00:58:26;;;;;;;4.50;2.57;;;;;;;;;;6227102;23;20701;-80
2023/07/25 01:01:03;;;;;;;16.73;3.10;;;;;;;;;;6226641;23;20469;-79
2023/07/25 01:03:32;;;;;;;4.53;2.90;;;;;;;;;;6227463;23;20681;-79
2023/07/25 01:06:02;;;;;;;5.53;2.53;;;;;;;;;;6230025;23;20401;-79
2023/07/25 01:08:33;;;;;;;5.50;2.50;;;;;;;;;;6229485;23;20406;-78
2023/07/25 01:11:01;;;;;;;4.87;2.63;;;;;;;;;;6228856;23;20540;-78
2023/07/25 01:13:29;;;;;;;3.37;2.10;;;;;;;;;;6227888;23;20410;-79
2023/07/25 01:15:58;;;;;;;4.97;2.70;;;;;;;;;;6226382;23;20678;-79
2023/07/25 01:18:26;;;;;;;5.13;2.63;;;;;;;;;;6229285;23;20421;-78
2023/07/25 01:20:54;;;;;;;4.10;2.67;;;;;;;;;;6225816;23;20390;-79
2023/07/25 01:23:23;;;;;;;5.30;3.00;;;;;;;;;;6225825;23;20414;-79
2023/07/25 01:25:52;;;;;;;3.87;2.30;;;;;;;;;;6219973;23;20414;-78
2023/07/25 01:28:19;;;;;;;5.00;2.83;;;;;;;;;;6222680;23;20487;-79
2023/07/25 01:30:47;;;;;;;6.60;3.13;;;;;;;;;;6225925;23;20515;-79
2023/07/25 01:33:15;;;;;;;3.83;2.40;;;;;;;;;;6226859;23;20390;-79
2023/07/25 01:35:43;;;;;;;3.40;2.23;;;;;;;;;;6226585;23;20685;-80
2023/07/25 01:38:11;;;;;;;12.57;3.23;;;;;;;;;;6222319;23;20520;-78
2023/07/25 01:40:40;;;;;;;3.83;2.10;;;;;;;;;;6226605;23;20833;-79
2023/07/25 01:43:09;;;;;;;5.47;2.73;;;;;;;;;;6227293;23;20843;-79
2023/07/25 01:45:36;;;;;;;8.50;3.07;;;;;;;;;;6229332;23;20824;-78
2023/07/25 01:48:04;;;;;;;6.00;2.50;;;;;;;;;;6228064;23;20820;-80
2023/07/25 01:50:32;;;;;;;4.17;3.10;;;;;;;;;;6227544;23;20446;-80
2023/07/25 01:53:00;;;;;;;6.60;3.90;;;;;;;;;;6226293;23;20509;-80
2023/07/25 01:55:27;;;;;;;5.33;3.30;;;;;;;;;;6227816;23;20468;-78
2023/07/25 01:57:55;;;;;;;6.00;3.93;;;;;;;;;;6226586;23;20418;-77
2023/07/25 02:00:24;;;;;;;6.90;4.10;;;;;;;;;;6229277;23;20413;-78
2023/07/25 02:02:53;;;;;;;7.83;4.20;;;;;;;;;;6225136;23;20398;-78
2023/07/25 02:05:22;;;;;;;6.63;4.00;;;;;;;;;;6224536;23;20428;-78
2023/07/25 02:07:49;;;;;;;6.93;4.43;;;;;;;;;;6227130;23;20422;-78
2023/07/25 02:10:17;;;;;;;9.97;4.10;;;;;;;;;;6226906;23;20536;-78
2023/07/25 02:12:45;;;;;;;9.40;4.20;;;;;;;;;;6228291;23;20414;-78
2023/07/25 02:15:12;;;;;;;7.57;4.03;;;;;;;;;;6227512;23;20382;-78
2023/07/25 02:17:42;;;;;;;7.43;4.47;;;;;;;;;;6228483;23;20414;-78
2023/07/25 02:20:10;;;;;;;6.53;4.13;;;;;;;;;;6226948;23;20434;-80
2023/07/25 02:22:37;;;;;;;7.50;4.87;;;;;;;;;;6229765;23;20414;-79
2023/07/25 02:25:05;;;;;;;6.17;4.77;;;;;;;;;;6226979;23;20414;-78
2023/07/25 02:27:33;;;;;;;13.03;6.00;;;;;;;;;;6227444;23;20670;-77
2023/07/25 02:30:00;;;;;;;10.10;5.30;;;;;;;;;;6227297;23;20386;-79
2023/07/25 02:32:28;;;;;;;9.30;5.40;;;;;;;;;;6228784;23;20737;-78
2023/07/25 02:34:57;;;;;;;5.50;4.70;;;;;;;;;;6225943;23;20413;-78
2023/07/25 02:37:24;;;;;;;11.53;4.87;;;;;;;;;;6226116;23;20531;-78
2023/07/25 02:39:52;;;;;;;7.30;5.10;;;;;;;;;;6225733;23;20457;-78
2023/07/25 02:42:19;;;;;;;10.13;6.30;;;;;;;;;;6224781;23;20410;-79
2023/07/25 02:44:47;;;;;;;9.23;5.73;;;;;;;;;;6226030;23;20390;-79
2023/07/25 02:47:14;;;;;;;9.10;5.27;;;;;;;;;;6227020;23;20418;-78
2023/07/25 02:49:42;;;;;;;8.90;5.00;;;;;;;;;;6226384;23;20422;-78
2023/07/25 02:52:11;;;;;;;8.97;5.67;;;;;;;;;;6228101;23;20446;-79
2023/07/25 02:54:38;;;;;;;13.97;6.73;;;;;;;;;;6224047;23;20450;-79
2023/07/25 02:57:07;;;;;;;6.30;5.33;;;;;;;;;;6224822;23;20391;-79
2023/07/25 02:59:34;;;;;;;6.60;5.30;;;;;;;;;;6222310;23;20387;-77
2023/07/25 03:02:03;;;;;;;9.23;6.07;;;;;;;;;;6225381;23;20410;-79
2023/07/25 03:04:31;;;;;;;7.17;5.10;;;;;;;;;;6225043;23;20418;-78
2023/07/25 03:06:58;;;;;;;11.40;5.20;;;;;;;;;;6225123;23;20509;-79
2023/07/25 03:09:28;;;;;;;9.20;5.43;;;;;;;;;;6228497;23;20402;-79
2023/07/25 03:11:56;;;;;;;6.80;4.80;;;;;;;;;;6225240;23;20426;-80
2023/07/25 03:14:23;;;;;;;10.33;5.03;;;;;;;;;;6224817;23;20414;-77
2023/07/25 03:16:51;;;;;;;9.43;4.10;;;;;;;;;;6227675;23;20453;-78
2023/07/25 03:19:18;;;;;;;6.07;4.03;;;;;;;;;;6234881;23;20409;-79
2023/07/25 03:21:46;;;;;;;7.10;3.80;;;;;;;;;;6231490;23;20686;-80
2023/07/25 03:24:13;;;;;;;11.40;5.00;;;;;;;;;;6225336;23;20743;-77
2023/07/25 03:26:42;;;;;;;7.40;4.90;;;;;;;;;;6220687;23;20536;-78
2023/07/25 03:29:09;;;;;;;6.10;4.40;;;;;;;;;;6232564;23;20418;-79
2023/07/25 03:31:37;;;;;;;11.67;5.93;;;;;;;;;;6235221;23;20615;-79
2023/07/25 03:34:04;;;;;;;12.00;4.60;;;;;;;;;;6234157;23;20397;-78
2023/07/25 03:36:32;;;;;;;6.80;4.13;;;;;;;;;;6229080;23;20830;-79
2023/07/25 03:39:00;;;;;;;6.60;3.90;;;;;;;;;;6231563;23;20414;-77
2023/07/25 03:41:29;;;;;;;12.00;4.60;;;;;;;;;;6232622;23;20406;-78
2023/07/25 03:43:58;;;;;;;8.80;4.30;;;;;;;;;;6230700;23;20417;-80
2023/07/25 03:46:26;;;;;;;7.50;4.10;;;;;;;;;;6232279;23;20469;-79
2023/07/25 03:48:54;;;;;;;11.73;5.30;;;;;;;;;;6235041;23;20436;-79
2023/07/25 03:51:21;;;;;;;8.53;3.67;;;;;;;;;;6234259;23;20457;-78
2023/07/25 03:53:50;;;;;;;7.50;3.10;;;;;;;;;;6232327;23;20410;-79
2023/07/25 03:56:17;;;;;;;8.17;4.20;;;;;;;;;;6235087;23;20719;-78
2023/07/25 03:58:45;;;;;;;9.33;3.97;;;;;;;;;;6232428;23;20425;-78
2023/07/25 04:01:14;;;;;;;7.63;3.93;;;;;;;;;;6234153;23;20416;-77
2023/07/25 04:03:42;;;;;;;10.10;3.93;;;;;;;;;;6228133;23;20413;-77
2023/07/25 04:06:09;;;;;;;7.90;4.50;;;;;;;;;;6228906;23;20490;-79
2023/07/25 04:08:37;;;;;;;6.30;3.80;;;;;;;;;;6229462;23;20371;-78
2023/07/25 04:11:05;;;;;;;8.70;3.90;;;;;;;;;;6230216;23;20711;-78
2023/07/25 04:13:33;;;;;;;9.53;3.70;;;;;;;;;;6230833;23;20414;-79
2023/07/25 04:16:00;;;;;;;5.57;4.20;;;;;;;;;;6227997;23;20426;-78
2023/07/25 04:18:32;;;;;;;6.63;4.30;;;;;;;;;;6228881;23;20417;-79
2023/07/25 04:21:00;;;;;;;9.40;4.80;;;;;;;;;;6230753;23;20391;-79
2023/07/25 04:23:27;;;;;;;8.60;4.20;;;;;;;;;;6230985;23;20426;-79
2023/07/25 04:25:55;;;;;;;9.10;3.50;;;;;;;;;;6234009;23;20414;-79
2023/07/25 04:28:23;;;;;;;8.43;4.80;;;;;;;;;;6232021;23;20448;-79
2023/07/25 04:30:50;;;;;;;8.00;4.27;;;;;;;;;;6230618;23;20395;-79
2023/07/25 04:33:18;;;;;;;9.17;3.90;;;;;;;;;;6229149;23;20486;-79
2023/07/25 04:35:47;;;;;;;8.53;5.50;;;;;;;;;;6228311;23;20422;-79
2023/07/25 04:38:18;;;;;;;5.33;4.00;;;;;;;;;;6226199;23;20626;-79
2023/07/25 04:40:46;;;;;;;11.13;5.80;;;;;;;;;;6228864;23;20428;-78
2023/07/25 04:43:13;;;;;;;7.47;4.30;;;;;;;;;;6227090;23;20410;-78
2023/07/25 04:45:41;;;;;;;5.97;4.20;;;;;;;;;;6229052;23;20426;-79
2023/07/25 04:48:09;;;;;;;5.40;4.23;;;;;;;;;;6224156;23;20481;-79
2023/07/25 04:50:36;;;;;;;6.67;4.47;;;;;;;;;;6225520;23;20438;-78
2023/07/25 04:53:05;;;;;;;6.40;4.33;;;;;;;;;;6226986;23;20410;-79
2023/07/25 04:55:33;;;;;;;7.87;4.20;;;;;;;;;;6226129;23;20766;-78
2023/07/25 04:58:02;;;;;;;5.93;4.50;;;;;;;;;;6221475;23;20422;-77
2023/07/25 05:00:30;;;;;;;5.70;4.07;;;;;;;;;;6222763;23;20397;-78
2023/07/25 05:02:57;;;;;;;10.50;4.67;;;;;;;;;;6222925;23;20505;-79
2023/07/25 05:05:25;;;;;;;5.57;4.27;;;;;;;;;;6221561;23;20453;-79
2023/07/25 05:07:52;;;;;;;8.87;4.10;;;;;;;;;;6220466;23;20425;-78
2023/07/25 05:10:21;;;;;;;4.50;3.43;;;;;;;;;;6221504;23;20466;-79
2023/07/25 05:12:50;;;;;;;9.53;3.50;;;;;;;;;;6227507;23;20414;-79
2023/07/25 05:15:20;;;;;;;6.03;3.87;;;;;;;;;;6224748;23;20405;-77
2023/07/25 05:17:51;;;;;;;5.00;3.40;;;;;;;;;;6222508;23;20481;-77
2023/07/25 05:20:19;;;;;;;4.80;3.00;;;;;;;;;;6226504;23;20541;-78
2023/07/25 05:22:47;;;;;;;5.70;3.10;;;;;;;;;;6225459;23;20429;-78
2023/07/25 05:25:15;;;;;;;7.57;3.40;;;;;;;;;;6226080;23;20493;-78
2023/07/25 05:27:45;;;;;;;5.90;2.87;;;;;;;;;;6225608;23;20516;-78
2023/07/25 05:30:22;;;;;;;7.17;3.13;;;;;;;;;;6224861;23;20758;-77
2023/07/25 05:32:52;;;;;;;4.40;2.87;;;;;;;;;;6224589;23;20445;-78
2023/07/25 05:35:20;;;;;;;5.60;2.80;;;;;;;;;;6221903;23;20430;-78
2023/07/25 05:37:47;;;;;;;5.23;2.50;;;;;;;;;;6222081;23;20371;-78
2023/07/25 05:40:16;;;;;;;5.17;2.60;;;;;;;;;;6222624;23;20425;-78
2023/07/25 05:42:47;;;;;;;4.07;2.60;;;;;;;;;;6219321;23;20417;-79
2023/07/25 05:45:21;;;;;;;7.73;3.83;;;;;;;;;;6222444;23;20715;-78
2023/07/25 05:47:50;;;;;;;7.30;3.40;;;;;;;;;;6221769;23;20429;-77
2023/07/25 05:50:18;;;;;;;9.07;3.70;;;;;;;;;;6217947;23;20626;-79
2023/07/25 05:52:49;;;;;;;6.40;3.20;;;;;;;;;;6221563;23;20477;-79
2023/07/25 05:55:17;;;;;;;5.73;3.07;;;;;;;;;;6222146;23;20496;-79
2023/07/25 05:57:46;;;;;;;5.00;3.20;;;;;;;;;;6223774;23;20402;-76
2023/07/25 06:00:18;;;;;;;5.33;2.90;;;;;;;;;;6223369;23;20811;-78
2023/07/25 06:02:45;;;;;;;3.40;3.00;;;;;;;;;;6225882;23;20397;-78
2023/07/25 06:05:16;;;;;;;6.77;3.50;;;;;;;;;;6223486;23;20414;-77
2023/07/25 06:07:54;;;;;;;4.40;2.77;;;;;;;;;;6223473;23;20777;-77
2023/07/25 06:10:22;;;;;;;6.80;3.07;;;;;;;;;;6227504;23;20425;-79
2023/07/25 06:12:56;;;;;;;9.33;3.40;;;;;;;;;;6225970;23;20446;-78
2023/07/25 06:15:24;;;;;;;4.23;2.60;;;;;;;;;;6225510;23;20408;-78
2023/07/25 06:17:54;;;;;;;6.07;3.47;;;;;;;;;;6231313;23;20401;-78
2023/07/25 06:20:26;;;;;;;6.63;3.63;;;;;;;;;;6226553;23;20442;-78
2023/07/25 06:22:58;;;;;;;13.20;3.70;;;;;;;;;;6225453;23;20535;-78
2023/07/25 06:25:26;;;;;;;7.20;2.70;;;;;;;;;;6221958;23;20436;-79
2023/07/25 06:27:59;;;;;;;5.07;2.90;;;;;;;;;;6222600;23;20425;-79
2023/07/25 06:30:28;;;;;;;4.90;2.70;;;;;;;;;;6225126;23;20481;-78
2023/07/25 06:32:58;;;;;;;4.40;3.07;;;;;;;;;;6226542;23;20446;-78
2023/07/25 06:35:26;;;;;;;7.30;4.23;;;;;;;;;;6223543;23;20410;-80
2023/07/25 06:37:53;;;;;;;6.10;3.07;;;;;;;;;;6221134;23;20417;-77
2023/07/25 06:40:21;;;;;;;5.03;3.40;;;;;;;;;;6224985;23;20442;-78
2023/07/25 06:42:49;;;;;;;8.30;3.47;;;;;;;;;;6222497;23;20639;-78
2023/07/25 06:45:18;;;;;;;10.03;3.30;;;;;;;;;;6224342;23;20414;-79
2023/07/25 06:47:46;;;;;;;10.80;3.43;;;;;;;;;;6220940;23;20429;-78
2023/07/25 06:50:17;;;;;;;5.00;2.97;;;;;;;;;;6222456;23;20442;-79
2023/07/25 06:52:46;;;;;;;7.27;3.20;;;;;;;;;;6229296;23;20446;-78
2023/07/25 06:55:15;;;;;;;5.13;2.80;;;;;;;;;;6229808;23;20387;-79
2023/07/25 06:57:42;;;;;;;5.83;2.70;;;;;;;;;;6223061;23;20401;-79
2023/07/25 07:00:11;;;;;;;5.80;2.73;;;;;;;;;;6224403;23;20481;-79
2023/07/25 07:02:40;;;;;;;5.03;2.70;;;;;;;;;;6223328;23;20840;-78
2023/07/25 07:05:09;;;;;;;5.30;2.90;;;;;;;;;;6223833;23;20509;-78
2023/07/25 07:07:39;;;;;;;7.80;2.77;;;;;;;;;;6225126;23;20450;-78
2023/07/25 07:10:11;;;;;;;7.33;2.80;;;;;;;;;;6224117;23;20457;-79
2023/07/25 07:12:45;;;;;;;6.33;3.13;;;;;;;;;;6224167;23;20426;-81
2023/07/25 07:15:14;;;;;;;7.53;2.87;;;;;;;;;;6225571;23;21075;-79
2023/07/25 07:17:43;;;;;;;8.80;2.70;;;;;;;;;;6225281;23;20418;-79
2023/07/25 07:20:11;;;;;;;6.17;2.53;;;;;;;;;;6222626;23;20869;-78
2023/07/25 07:22:39;;;;;;;7.53;2.10;;;;;;;;;;6226230;23;20502;-79
2023/07/25 07:25:07;;;;;;;6.00;2.93;;;;;;;;;;6221236;23;20434;-79
2023/07/25 07:27:35;;;;;;;3.40;1.63;;;;;;;;;;6219671;23;20391;-78
2023/07/25 07:30:07;;;;;;;4.43;2.70;;;;;;;;;;6220508;23;20414;-78
2023/07/25 07:32:34;;;;;;;7.83;2.53;;;;;;;;;;6219819;23;20481;-79
2023/07/25 07:35:03;;;;;;;6.83;2.80;;;;;;;;;;6220327;23;20417;-78
2023/07/25 07:37:31;;;;;;;10.93;2.23;;;;;;;;;;6220105;23;20476;-79
2023/07/25 07:39:59;;;;;;;6.17;1.87;;;;;;;;;;6221376;23;20418;-79
2023/07/25 07:42:26;;;;;;;6.90;2.27;;;;;;;;;;6220528;23;20445;-77
2023/07/25 07:44:54;;;;;;;6.43;2.37;;;;;;;;;;6222153;23;20414;-78
2023/07/25 07:47:22;;;;;;;6.83;2.10;;;;;;;;;;6220250;23;20437;-79
2023/07/25 07:49:50;;;;;;;6.20;2.60;;;;;;;;;;6218035;23;20441;-78
2023/07/25 07:52:20;;;;;;;6.40;2.50;;;;;;;;;;6220944;23;21037;-78
2023/07/25 07:54:54;;;;;;;8.40;2.27;;;;;;;;;;6218972;23;20414;-77
2023/07/25 07:57:23;;;;;;;4.17;1.93;;;;;;;;;;6227223;23;20397;-79
2023/07/25 07:59:52;;;;;;;11.40;2.80;;;;;;;;;;6221914;23;20410;-77
2023/07/25 08:02:28;;;;;;;3.27;1.70;;;;;;;;;;6223950;23;20747;-79
2023/07/25 08:05:00;;;;;;;6.20;3.50;;;;;;;;;;6224216;23;20437;-79
2023/07/25 08:07:35;;;;;;;4.43;2.33;;;;;;;;;;6220805;23;20733;-78
2023/07/25 08:10:10;;;;;;;4.47;2.53;;;;;;;;;;6226696;23;20436;-79
2023/07/25 08:12:39;;;;;;;11.73;3.40;;;;;;;;;;6198167;23;20473;-77
2023/07/25 08:15:15;;;;;;;6.67;2.10;;;;;;;;;;6225943;23;20449;-77
2023/07/25 08:18:01;;;;;;;3.77;1.57;;;;;;;;;;6228081;23;20481;-78
2023/07/25 08:20:32;;;;;;;5.20;1.90;;;;;;;;;;6228021;23;20418;-78
2023/07/25 08:23:08;;;;;;;6.50;1.90;;;;;;;;;;6223343;23;20714;-79
2023/07/25 08:25:40;;;;;;;4.37;1.33;;;;;;;;;;6223854;23;20457;-79
2023/07/25 08:28:08;;;;;;;9.60;2.23;;;;;;;;;;6223652;23;20418;-76
2023/07/25 08:30:35;;;;;;;2.67;1.87;;;;;;;;;;6223866;23;20424;-77
2023/07/25 08:33:05;;;;;;;7.60;1.40;;;;;;;;;;6220821;23;20967;-78
2023/07/25 08:35:37;;;;;;;10.30;2.27;;;;;;;;;;6222912;23;20476;-80
2023/07/25 08:41:13;;;;;;;8.43;2.00;;;;;;;;;;6221037;23;20464;-78
2023/07/25 08:43:44;;;;;;;7.60;2.47;;;;;;;;;;6221963;23;20521;-79
2023/07/25 08:46:14;;;;;;;11.83;4.90;;;;;;;;;;6222940;23;20422;-77
2023/07/25 08:48:47;;;;;;;2.93;1.50;;;;;;;;;;6219848;23;20484;-79
2023/07/25 08:51:24;;;;;;;5.10;2.00;;;;;;;;;;6225705;23;20472;-77
2023/07/25 08:53:57;;;;;;;7.10;2.07;;;;;;;;;;6226580;23;20445;-77
2023/07/25 08:56:36;;;;;;;5.50;1.70;;;;;;;;;;6223705;23;20422;-77
2023/07/25 08:59:12;;;;;;;7.50;1.97;;;;;;;;;;6224847;23;20468;-78
2023/07/25 09:01:41;;;;;;;5.97;2.30;;;;;;;;;;6221989;23;20446;-78
2023/07/25 09:04:19;;;;;;;7.10;2.63;;;;;;;;;;6201066;23;20414;-78
2023/07/25 09:18:46;;;;;;;5.07;2.37;;;;;;;;;;6188249;23;20533;-74
2023/07/25 09:41:52;;;;;;;4.60;1.50;;;;;;;;;;6203865;23;20463;-80
2023/07/25 09:44:24;;;;;;;5.90;2.00;;;;;;;;;;6192203;23;20194;-80
2023/07/25 09:46:53;;;;;;;3.53;1.53;;;;;;;;;;6193186;23;20426;-77
2023/07/25 09:49:41;;;;;;;6.20;2.00;;;;;;;;;;6196002;23;20482;-80
2023/07/25 09:52:10;;;;;;;3.10;1.47;;;;;;;;;;6197460;23;20419;-79
2023/07/25 09:54:38;;;;;;;3.10;1.37;;;;;;;;;;6195054;23;20442;-78
2023/07/25 09:57:18;;;;;;;5.13;1.80;;;;;;;;;;6192620;23;20414;-78
2023/07/25 09:59:49;;;;;;;2.33;1.17;;;;;;;;;;6193172;23;20414;-80
2023/07/25 10:02:18;;;;;;;4.57;2.03;;;;;;;;;;6192866;23;20866;-76
2023/07/25 10:04:56;;;;;;;3.90;2.03;;;;;;;;;;6194541;23;20479;-76
2023/07/25 10:07:25;;;;;;;3.03;1.43;;;;;;;;;;6192505;23;20399;-77
2023/07/25 10:09:55;;;;;;;3.83;2.20;;;;;;;;;;6195909;23;20397;-77
2023/07/25 10:15:26;;;;;;;5.23;1.30;;;;;;;;;;6189204;23;20617;-77
2023/07/25 10:18:20;;;;;;;3.63;1.47;;;;;;;;;;6190017;23;20850;-76
2023/07/25 10:21:01;;;;;;;3.73;1.60;;;;;;;;;;6193736;23;20473;-79
2023/07/25 10:23:36;;;;;;;3.10;1.10;;;;;;;;;;6194882;23;20441;-76
2023/07/25 10:26:13;;;;;;;3.90;1.30;;;;;;;;;;6192816;23;20422;-77
2023/07/25 10:28:41;;;;;;;4.50;1.30;;;;;;;;;;6194221;23;20415;-79
2023/07/25 10:31:26;;;;;;;3.87;1.70;;;;;;;;;;6194248;23;20400;-78
2023/07/25 10:34:01;;;;;;;3.20;1.03;;;;;;;;;;6196971;23;20462;-78
2023/07/25 10:36:29;;;;;;;3.13;1.23;;;;;;;;;;6191985;23;20418;-78
2023/07/25 10:39:05;;;;;;;3.23;1.10;;;;;;;;;;6194308;23;20924;-78
2023/07/25 10:41:33;;;;;;;4.50;1.17;;;;;;;;;;6181134;23;20435;-79
2023/07/25 10:44:02;;;;;;;4.73;1.17;;;;;;;;;;6157206;23;20412;-79
2023/07/25 10:46:43;;;;;;;3.37;1.33;;;;;;;;;;6159392;23;20416;-77
2023/07/25 10:49:17;;;;;;;6.50;1.17;;;;;;;;;;6162483;23;20931;-77
2023/07/25 10:52:02;;;;;;;1.97;0.90;;;;;;;;;;6160390;23;20507;-79
2023/07/25 10:54:38;;;;;;;2.93;1.37;;;;;;;;;;6163490;23;20495;-79
2023/07/25 10:57:22;;;;;;;6.23;1.50;;;;;;;;;;6151809;23;20515;-79
2023/07/25 11:00:00;;;;;;;4.17;1.63;;;;;;;;;;6157649;23;20504;-80
2023/07/25 11:02:46;;;;;;;4.00;1.60;;;;;;;;;;6158708;23;20419;-80
2023/07/25 11:05:25;;;;;;;3.50;1.10;;;;;;;;;;6158163;23;20487;-80
2023/07/25 11:07:55;;;;;;;3.90;1.60;;;;;;;;;;6159267;23;20419;-79
2023/07/25 11:10:23;;;;;;;5.07;1.30;;;;;;;;;;6162780;23;20994;-79
2023/07/25 11:12:52;;;;;;;2.87;1.20;;;;;;;;;;6163932;23;20424;-79
2023/07/25 11:15:20;;;;;;;5.33;1.40;;;;;;;;;;6161325;23;20455;-80
2023/07/25 11:17:49;;;;;;;2.73;1.23;;;;;;;;;;6160172;23;20463;-79
2023/07/25 11:20:34;;;;;;;5.50;1.63;;;;;;;;;;6163084;23;20746;-80
2023/07/25 11:23:08;;;;;;;2.83;1.40;;;;;;;;;;6164192;23;20845;-78
2023/07/25 11:25:37;;;;;;;3.30;1.27;;;;;;;;;;6165260;23;20461;-78
2023/07/25 11:28:07;;;;;;;4.03;1.10;;;;;;;;;;6164970;23;20459;-78
2023/07/25 11:30:51;;;;;;;2.37;1.23;;;;;;;;;;6167732;23;20778;-78
2023/07/25 11:33:26;;;;;;;6.60;1.10;;;;;;;;;;6163357;23;20483;-79
2023/07/25 11:35:56;;;;;;;4.50;1.50;;;;;;;;;;6160420;23;20429;-79
2023/07/25 11:38:27;;;;;;;2.40;1.20;;;;;;;;;;6147884;23;20451;-77
2023/07/25 11:40:59;;;;;;;4.43;1.33;;;;;;;;;;6162734;23;20397;-78
2023/07/25 11:43:29;;;;;;;2.70;1.13;;;;;;;;;;6211851;23;20482;-79
2023/07/25 11:49:27;;;;;;;2.13;0.90;;;;;;;;;;6223607;23;20380;-77
2023/07/25 11:51:54;;;;;;;2.40;1.00;;;;;;;;;;6196129;23;20437;-78
2023/07/25 11:54:23;;;;;;;3.20;1.13;;;;;;;;;;6193414;23;20900;-79
2023/07/25 11:56:51;;;;;;;2.10;1.00;;;;;;;;;;6193100;23;20415;-78
2023/07/25 11:59:19;;;;;;;4.47;1.53;;;;;;;;;;6199894;23;20433;-79
2023/07/25 12:01:47;;;;;;;2.03;1.30;;;;;;;;;;6191438;23;20419;-80
2023/07/25 12:04:17;;;;;;;4.40;1.23;;;;;;;;;;6190043;23;20391;-78
2023/07/25 12:06:45;;;;;;;7.53;2.40;;;;;;;;;;6192644;23;20453;-79
2023/07/25 12:09:29;;;;;;;3.60;1.10;;;;;;;;;;6196339;23;20419;-79
2023/07/25 12:11:57;;;;;;;2.77;1.17;;;;;;;;;;6194767;23;20434;-78
2023/07/25 12:14:24;;;;;;;2.63;1.30;;;;;;;;;;6194751;23;21111;-78
2023/07/25 12:16:51;;;;;;;4.63;1.60;;;;;;;;;;6194730;23;20482;-79
2023/07/25 12:19:22;;;;;;;4.20;0.90;;;;;;;;;;6195705;23;20757;-79
2023/07/25 12:21:50;;;;;;;2.53;1.30;;;;;;;;;;6197457;23;20419;-78
2023/07/25 12:24:22;;;;;;;8.03;1.40;;;;;;;;;;6198797;23;20403;-80
2023/07/25 12:26:58;;;;;;;3.67;2.10;;;;;;;;;;6193324;23;20426;-80
2023/07/25 12:29:26;;;;;;;3.40;1.30;;;;;;;;;;6196069;23;20399;-78
2023/07/25 12:31:57;;;;;;;4.00;1.30;;;;;;;;;;6198091;23;20415;-80
2023/07/25 12:34:27;;;;;;;2.97;1.27;;;;;;;;;;6202185;23;20449;-80
2023/07/25 12:36:55;;;;;;;4.87;1.30;;;;;;;;;;6201044;23;20469;-78
2023/07/25 12:39:23;;;;;;;5.00;1.13;;;;;;;;;;6196578;23;20507;-79
2023/07/25 12:41:51;;;;;;;5.70;1.13;;;;;;;;;;6195412;23;20433;-79
2023/07/25 12:44:29;;;;;;;3.10;0.93;;;;;;;;;;6194797;23;20411;-79
2023/07/25 12:46:59;;;;;;;4.63;0.90;;;;;;;;;;6196942;23;20477;-78
2023/07/25 12:49:28;;;;;;;3.23;1.03;;;;;;;;;;6197572;23;20893;-80
2023/07/25 12:51:59;;;;;;;2.83;0.80;;;;;;;;;;6227129;23;20469;-79
2023/07/25 12:54:30;;;;;;;2.20;1.00;;;;;;;;;;6227700;23;20418;-79
2023/07/25 12:56:58;;;;;;;3.80;1.47;;;;;;;;;;6228379;23;20417;-80
2023/07/25 12:59:26;;;;;;;2.37;1.20;;;;;;;;;;6224861;23;20477;-78
2023/07/25 13:01:55;;;;;;;4.33;1.03;;;;;;;;;;6227766;23;20414;-78
2023/07/25 13:04:33;;;;;;;4.20;1.20;;;;;;;;;;6229516;23;20476;-79
2023/07/25 13:07:05;;;;;;;4.87;1.10;;;;;;;;;;6231755;23;20467;-79
2023/07/25 13:09:33;;;;;;;3.70;1.40;;;;;;;;;;6227879;23;20489;-78
2023/07/25 13:12:03;;;;;;;3.70;1.20;;;;;;;;;;6226966;23;20719;-78
2023/07/25 13:14:30;;;;;;;4.53;1.53;;;;;;;;;;6226389;23;20445;-77
2023/07/25 13:16:58;;;;;;;4.53;1.40;;;;;;;;;;6225914;23;21070;-77
2023/07/25 13:19:27;;;;;;;1.90;0.80;;;;;;;;;;6224423;23;20391;-78
2023/07/25 13:21:56;;;;;;;6.83;1.40;;;;;;;;;;6224663;23;20418;-76
2023/07/25 13:24:27;;;;;;;6.70;1.47;;;;;;;;;;6227193;23;20638;-78
2023/07/25 13:26:56;;;;;;;2.07;0.90;;;;;;;;;;6226212;23;20418;-77
2023/07/25 13:29:23;;;;;;;7.30;4.60;;;;;;;;;;6225569;23;20432;-77
2023/07/25 13:31:56;;;;;;;5.23;1.70;;;;;;;;;;6228230;23;20418;-78
2023/07/25 13:34:23;;;;;;;4.30;1.50;;;;;;;;;;6228920;23;20434;-79
2023/07/25 13:36:52;;;;;;;3.90;1.37;;;;;;;;;;6226428;23;20418;-77
2023/07/25 13:39:25;;;;;;;7.00;2.17;;;;;;;;;;6223792;23;20409;-77
2023/07/25 13:41:53;;;;;;;6.33;1.63;;;;;;;;;;6223703;23;20448;-79
2023/07/25 13:44:39;;;;;;;3.60;1.77;;;;;;;;;;6223161;23;20828;-76
2023/07/25 13:47:07;;;;;;;3.10;1.30;;;;;;;;;;6224016;23;20426;-79
2023/07/25 13:49:35;;;;;;;5.60;1.97;;;;;;;;;;6221943;23;20407;-80
2023/07/25 13:52:05;;;;;;;5.10;1.20;;;;;;;;;;6223919;23;20402;-77
2023/07/25 13:54:34;;;;;;;5.63;3.40;;;;;;;;;;6223124;23;20430;-78
2023/07/25 13:57:05;;;;;;;4.43;2.40;;;;;;;;;;6221105;23;20430;-79
2023/07/25 13:59:32;;;;;;;4.90;1.93;;;;;;;;;;6222138;23;20438;-79
2023/07/25 14:02:03;;;;;;;4.90;1.87;;;;;;;;;;6219779;23;20781;-80
2023/07/25 14:04:30;;;;;;;6.43;2.00;;;;;;;;;;6220430;23;20743;-79
2023/07/25 14:07:05;;;;;;;4.50;1.97;;;;;;;;;;6221673;23;20503;-79
2023/07/25 14:09:34;;;;;;;3.70;1.93;;;;;;;;;;6221820;23;20596;-78
2023/07/25 14:12:10;;;;;;;6.83;2.47;;;;;;;;;;6223641;23;20442;-77
2023/07/25 14:14:45;;;;;;;3.60;1.47;;;;;;;;;;6221019;23;20472;-78
2023/07/25 14:17:23;;;;;;;5.97;2.00;;;;;;;;;;6221943;23;20459;-78
2023/07/25 14:19:50;;;;;;;4.93;2.90;;;;;;;;;;6222870;23;20410;-78
2023/07/25 14:22:19;;;;;;;6.80;2.20;;;;;;;;;;6228654;23;20486;-77
2023/07/25 14:24:49;;;;;;;5.93;2.10;;;;;;;;;;6225491;23;20402;-77
2023/07/25 14:27:20;;;;;;;6.93;2.73;;;;;;;;;;6227507;23;20406;-78
2023/07/25 14:29:56;;;;;;;3.73;1.90;;;;;;;;;;6229648;23;20409;-78
2023/07/25 14:32:28;;;;;;;5.30;1.70;;;;;;;;;;6230425;23;20413;-78
2023/07/25 14:34:57;;;;;;;7.80;1.57;;;;;;;;;;6223804;23;20441;-77
2023/07/25 14:37:28;;;;;;;7.03;3.60;;;;;;;;;;6223689;23;20425;-78
2023/07/25 14:40:12;;;;;;;3.90;1.90;;;;;;;;;;6222905;23;20378;-80
2023/07/25 14:42:40;;;;;;;4.67;2.00;;;;;;;;;;6227264;23;20474;-78
2023/07/25 14:45:09;;;;;;;7.57;2.20;;;;;;;;;;6230712;23;20408;-77
2023/07/25 14:47:38;;;;;;;6.67;2.10;;;;;;;;;;6218986;23;20405;-78
2023/07/25 14:50:09;;;;;;;6.53;2.30;;;;;;;;;;6221488;23;20485;-77
2023/07/25 14:52:36;;;;;;;3.80;1.50;;;;;;;;;;6221596;23;20413;-78
2023/07/25 14:55:03;;;;;;;5.67;1.77;;;;;;;;;;6219298;23;20450;-78
2023/07/25 14:57:32;;;;;;;4.93;1.50;;;;;;;;;;6222398;23;20414;-79
2023/07/25 15:00:01;;;;;;;3.40;1.40;;;;;;;;;;6223128;23;20422;-78
2023/07/25 15:02:28;;;;;;;4.87;2.57;;;;;;;;;;6219240;23;20488;-77
2023/07/25 15:11:15;;;;;;;6.40;1.60;;;;;;;;;;6218734;23;20386;-79
2023/07/25 15:16:37;;;;;;;5.07;2.23;;;;;;;;;;6220669;23;20421;-79
2023/07/25 15:19:07;;;;;;;5.30;1.50;;;;;;;;;;6236677;23;20421;-79
2023/07/25 15:21:40;;;;;;;4.40;1.60;;;;;;;;;;6232163;23;20429;-78
2023/07/25 15:24:08;;;;;;;4.10;1.80;;;;;;;;;;6228985;23;20504;-78
2023/07/25 15:26:38;;;;;;;6.43;2.43;;;;;;;;;;6228946;23;20425;-80
2023/07/25 15:29:11;;;;;;;6.30;1.47;;;;;;;;;;6228246;23;20528;-79
2023/07/25 15:31:44;;;;;;;7.20;1.67;;;;;;;;;;6228021;23;20438;-79
2023/07/25 15:34:12;;;;;;;4.87;2.50;;;;;;;;;;6229401;23;20936;-79
2023/07/25 15:36:41;;;;;;;4.53;1.40;;;;;;;;;;6228185;23;21064;-78
2023/07/25 15:39:09;;;;;;;4.40;1.20;;;;;;;;;;6228660;23;20425;-78
2023/07/25 15:41:36;;;;;;;4.63;2.50;;;;;;;;;;6227560;23;20420;-78
2023/07/25 15:44:04;;;;;;;5.47;2.13;;;;;;;;;;6223897;23;20387;-77
2023/07/25 15:46:32;;;;;;;5.40;1.33;;;;;;;;;;6223780;23;20474;-80
2023/07/25 15:49:09;;;;;;;4.87;1.47;;;;;;;;;;6224783;23;20414;-79
2023/07/25 15:51:37;;;;;;;4.77;1.57;;;;;;;;;;6225455;23;20601;-78